Time;durP1;ratioP1;P1;durP2;ratioP2;P2;SDS_P1;SDS_P2;PMS_P1;PMS_P2;Temp;Humidity;BMP_temperature;BMP_pressure;BME280_temperature;BME280_humidity;BME280_pressure;Samples;Min_cycle;Max_cycle;Signal;HPM_P1;HPM_P2
2022/05/02 00:00:24;;;;;;;4.93;4.53;;;;;;;14.43;71.02;99745.09;5072757;28;20551;-71
2022/05/02 00:02:51;;;;;;;6.30;4.43;;;;;;;13.90;72.25;99742.84;5073828;28;20326;-71
2022/05/02 00:05:19;;;;;;;5.10;4.80;;;;;;;14.00;71.75;99738.69;5089530;28;20195;-70
2022/05/02 00:07:46;;;;;;;5.03;4.57;;;;;;;13.84;72.11;99739.16;5091785;28;20210;-71
2022/05/02 00:10:14;;;;;;;5.33;5.00;;;;;;;13.78;72.66;99739.16;5091910;28;20195;-69
2022/05/02 00:12:41;;;;;;;5.33;5.03;;;;;;;13.75;72.71;99740.41;5091730;28;20223;-71
2022/05/02 00:15:08;;;;;;;5.60;5.20;;;;;;;13.82;72.63;99741.22;5092081;28;20195;-70
2022/05/02 00:20:24;;;;;;;5.10;4.77;;;;;;;13.98;71.92;99740.75;5086515;28;20192;-70
2022/05/02 00:22:51;;;;;;;5.57;5.23;;;;;;;14.02;71.50;99741.97;5091642;28;20195;-70
2022/05/02 00:25:18;;;;;;;6.07;5.47;;;;;;;13.83;71.82;99737.50;5091612;28;20618;-71
2022/05/02 00:27:44;;;;;;;5.53;5.00;;;;;;;13.76;72.43;99739.38;5092113;28;20215;-69
2022/05/02 00:30:13;;;;;;;5.87;5.30;;;;;;;13.93;71.81;99734.41;5091497;28;20213;-71
2022/05/02 00:32:40;;;;;;;6.63;4.83;;;;;;;14.06;71.42;99732.50;5092151;28;20198;-70
2022/05/02 00:35:09;;;;;;;5.87;4.57;;;;;;;14.10;71.23;99722.19;5092080;28;20215;-69
2022/05/02 00:37:38;;;;;;;5.07;4.67;;;;;;;14.13;70.99;99717.25;5091757;28;20206;-73
2022/05/02 00:40:06;;;;;;;5.63;4.83;;;;;;;14.19;70.38;99715.56;5092332;28;20227;-69
2022/05/02 00:42:32;;;;;;;4.80;4.43;;;;;;;14.15;70.86;99720.53;5092119;28;20195;-68
2022/05/02 00:44:59;;;;;;;4.63;4.17;;;;;;;14.12;70.71;99714.78;5092709;28;20553;-69
2022/05/02 00:47:26;;;;;;;4.77;4.37;;;;;;;14.16;70.49;99711.47;5092553;28;20258;-70
2022/05/02 00:49:53;;;;;;;4.80;4.50;;;;;;;14.08;70.74;99711.72;5092402;28;20199;-72
2022/05/02 00:52:21;;;;;;;5.00;4.30;;;;;;;14.04;71.13;99715.03;5092358;28;20623;-71
2022/05/02 00:54:50;;;;;;;4.93;4.53;;;;;;;14.10;70.80;99715.00;5092486;28;20191;-70
2022/05/02 00:57:17;;;;;;;7.23;6.53;;;;;;;14.04;70.71;99718.53;5092395;28;20195;-70
2022/05/02 00:59:45;;;;;;;9.90;6.07;;;;;;;14.14;70.68;99724.22;5092290;28;20673;-69
2022/05/02 01:02:14;;;;;;;9.30;8.50;;;;;;;14.16;70.46;99711.47;5092265;28;20731;-69
2022/05/02 01:04:42;;;;;;;11.07;8.50;;;;;;;14.20;70.06;99718.03;5092445;28;20199;-70
2022/05/02 01:07:12;;;;;;;8.63;7.83;;;;;;;14.18;69.62;99709.41;5092960;28;20223;-70
2022/05/02 01:09:43;;;;;;;8.00;7.20;;;;;;;14.21;70.05;99711.69;5092597;28;20205;-70
2022/05/02 01:12:14;;;;;;;7.23;6.73;;;;;;;14.23;69.62;99717.66;5091983;28;20634;-69
2022/05/02 01:14:41;;;;;;;8.13;6.03;;;;;;;14.28;69.51;99720.50;5093127;28;20258;-69
2022/05/02 01:17:08;;;;;;;5.43;5.13;;;;;;;14.21;70.04;99708.22;5092919;28;20190;-70
2022/05/02 01:19:35;;;;;;;6.60;5.00;;;;;;;14.14;70.03;99710.88;5092056;28;20253;-70
2022/05/02 01:22:04;;;;;;;5.70;5.30;;;;;;;14.15;69.94;99704.50;5093201;28;20316;-71
2022/05/02 01:24:36;;;;;;;5.50;5.17;;;;;;;14.12;70.42;99704.94;5092007;28;20559;-69
2022/05/02 01:27:03;;;;;;;5.00;4.60;;;;;;;14.07;70.22;99712.78;5091726;28;20291;-71
2022/05/02 01:29:31;;;;;;;5.90;5.27;;;;;;;14.05;70.34;99706.81;5091201;28;20191;-70
2022/05/02 01:31:58;;;;;;;5.43;5.00;;;;;;;14.13;70.02;99703.88;5091709;28;20268;-71
2022/05/02 01:34:25;;;;;;;6.27;5.43;;;;;;;14.15;70.02;99698.34;5091594;28;20195;-70
2022/05/02 01:36:51;;;;;;;6.23;5.50;;;;;;;14.18;70.04;99697.91;5089569;28;20195;-70
2022/05/02 01:39:20;;;;;;;8.77;5.40;;;;;;;14.21;69.88;99698.31;5092157;28;20623;-69
2022/05/02 01:41:46;;;;;;;6.00;5.50;;;;;;;14.24;69.46;99695.22;5092346;28;20191;-69
2022/05/02 01:44:13;;;;;;;6.17;5.40;;;;;;;14.13;70.18;99674.50;5091834;28;20195;-69
2022/05/02 01:46:40;;;;;;;7.37;5.67;;;;;;;14.25;69.77;99688.84;5091739;28;20254;-71
2022/05/02 01:49:07;;;;;;;9.07;5.63;;;;;;;14.23;70.19;99682.91;5092104;28;20191;-70
2022/05/02 01:51:34;;;;;;;6.03;5.60;;;;;;;14.22;69.74;99686.59;5092084;28;20199;-70
2022/05/02 01:54:00;;;;;;;8.13;5.83;;;;;;;14.26;69.78;99679.00;5092087;28;20253;-71
2022/05/02 01:56:28;;;;;;;6.33;5.80;;;;;;;14.26;69.73;99671.78;5091998;28;20256;-70
2022/05/02 01:58:56;;;;;;;6.60;6.10;;;;;;;13.97;70.51;99664.31;5091997;28;20191;-70
2022/05/02 02:01:22;;;;;;;6.80;6.27;;;;;;;14.07;70.29;99659.34;5091510;28;20727;-70
2022/05/02 02:03:49;;;;;;;7.90;6.37;;;;;;;14.11;70.45;99654.38;5091985;28;20224;-70
2022/05/02 02:06:15;;;;;;;6.80;6.20;;;;;;;13.98;70.70;99649.94;5092665;28;20244;-69
2022/05/02 02:08:41;;;;;;;6.30;5.87;;;;;;;14.01;70.98;99654.84;5091900;28;20200;-69
2022/05/02 02:11:10;;;;;;;11.33;6.53;;;;;;;14.00;70.69;99642.53;5092384;28;20241;-70
2022/05/02 02:13:39;;;;;;;6.80;6.27;;;;;;;14.04;71.07;99632.22;5091744;28;20231;-70
2022/05/02 02:16:09;;;;;;;7.70;7.10;;;;;;;14.03;70.95;99635.94;5091668;28;20294;-69
2022/05/02 02:18:37;;;;;;;7.40;6.70;;;;;;;14.04;71.07;99627.72;5092423;28;20183;-69
2022/05/02 02:21:05;;;;;;;6.37;5.83;;;;;;;14.07;70.88;99629.13;5093029;28;20195;-69
2022/05/02 02:23:32;;;;;;;6.73;6.17;;;;;;;14.08;70.70;99628.09;5095441;28;20188;-68
2022/05/02 02:25:59;;;;;;;6.60;6.07;;;;;;;14.07;70.80;99627.28;5095156;28;20192;-69
2022/05/02 02:28:26;;;;;;;8.80;5.93;;;;;;;14.11;70.81;99628.50;5094978;28;20218;-70
2022/05/02 02:30:54;;;;;;;7.10;6.40;;;;;;;14.11;70.79;99628.50;5095023;28;20806;-70
2022/05/02 02:33:21;;;;;;;6.40;5.90;;;;;;;14.11;70.66;99622.31;5095101;28;20196;-70
2022/05/02 02:35:48;;;;;;;6.50;6.10;;;;;;;14.09;70.46;99627.88;5094870;28;20195;-70
2022/05/02 02:38:15;;;;;;;6.40;6.00;;;;;;;14.03;71.05;99638.59;5094837;28;20727;-69
2022/05/02 02:40:42;;;;;;;10.83;6.57;;;;;;;14.03;71.33;99628.75;5094836;28;20195;-70
2022/05/02 02:43:09;;;;;;;21.40;7.83;;;;;;;14.03;71.64;99631.44;5094709;28;20192;-69
2022/05/02 02:45:36;;;;;;;13.50;7.60;;;;;;;14.03;71.11;99631.44;5095337;28;20219;-71
2022/05/02 02:48:04;;;;;;;11.23;6.40;;;;;;;14.05;71.26;99631.22;5094632;28;20222;-69
2022/05/02 02:50:31;;;;;;;13.00;6.77;;;;;;;14.05;70.36;99636.56;5094921;28;20195;-70
2022/05/02 02:52:58;;;;;;;14.60;6.87;;;;;;;14.04;71.34;99643.75;5094918;28;20248;-70
2022/05/02 02:55:25;;;;;;;10.77;7.07;;;;;;;14.03;71.09;99636.75;5094551;28;20240;-70
2022/05/02 02:57:51;;;;;;;11.40;7.60;;;;;;;14.05;71.20;99633.88;5094504;28;20666;-70
2022/05/02 03:00:19;;;;;;;8.93;6.90;;;;;;;14.07;71.26;99643.31;5094808;28;20191;-69
2022/05/02 03:02:46;;;;;;;8.97;6.10;;;;;;;14.02;71.48;99635.13;5094439;28;20227;-70
2022/05/02 03:07:59;;;;;;;7.27;6.77;;;;;;;13.82;72.21;99634.41;5094664;28;20268;-70
2022/05/02 03:10:26;;;;;;;8.53;7.07;;;;;;;13.87;72.15;99636.44;5094604;28;20195;-69
2022/05/02 03:12:54;;;;;;;10.40;7.27;;;;;;;13.87;71.97;99634.59;5093951;28;20227;-70
2022/05/02 03:15:21;;;;;;;7.60;6.93;;;;;;;13.90;71.88;99636.84;5094889;28;20571;-70
2022/05/02 03:17:48;;;;;;;8.07;6.80;;;;;;;13.92;72.21;99642.78;5094249;28;20268;-70
2022/05/02 03:20:16;;;;;;;7.53;6.80;;;;;;;13.92;72.21;99640.09;5094381;28;20191;-69
2022/05/02 03:22:43;;;;;;;7.63;6.93;;;;;;;13.93;72.11;99641.72;5094186;28;20191;-69
2022/05/02 03:25:10;;;;;;;7.53;6.90;;;;;;;13.96;72.07;99652.00;5094006;28;20663;-69
2022/05/02 03:27:36;;;;;;;7.47;6.90;;;;;;;13.96;71.84;99649.31;5094007;28;20258;-69
2022/05/02 03:30:04;;;;;;;10.33;7.53;;;;;;;13.98;72.76;99649.94;5094196;28;20195;-69
2022/05/02 03:32:30;;;;;;;8.20;7.37;;;;;;;14.03;72.40;99646.63;5094605;28;20246;-70
2022/05/02 03:34:57;;;;;;;13.87;6.93;;;;;;;14.08;72.59;99655.63;5093937;28;20223;-69
2022/05/02 03:37:25;;;;;;;8.43;7.30;;;;;;;14.16;71.74;99643.88;5093841;28;20199;-71
2022/05/02 03:39:52;;;;;;;7.77;7.00;;;;;;;14.23;71.68;99653.53;5094025;28;20244;-69
2022/05/02 03:42:18;;;;;;;11.47;7.07;;;;;;;14.30;71.58;99648.94;5093634;28;20195;-69
2022/05/02 03:44:45;;;;;;;9.30;7.47;;;;;;;14.38;71.38;99647.88;5093572;28;20214;-69
2022/05/02 03:47:12;;;;;;;9.03;7.83;;;;;;;14.45;71.21;99646.78;5093727;28;20223;-69
2022/05/02 03:49:38;;;;;;;9.33;8.27;;;;;;;14.53;70.93;99649.19;5093663;28;20191;-69
2022/05/02 03:52:06;;;;;;;9.50;7.93;;;;;;;14.62;71.24;99647.06;5093571;28;20248;-69
2022/05/02 03:54:34;;;;;;;11.53;7.77;;;;;;;14.91;70.67;99643.75;5093018;28;20245;-68
2022/05/02 03:57:01;;;;;;;8.00;7.47;;;;;;;15.32;69.44;99644.72;5093382;28;20195;-68
2022/05/02 03:59:28;;;;;;;8.97;7.17;;;;;;;15.72;67.56;99653.97;5093188;28;20727;-67
2022/05/02 04:01:54;;;;;;;12.77;7.63;;;;;;;16.02;66.14;99655.84;5092854;28;20225;-67
2022/05/02 04:04:21;;;;;;;7.63;7.03;;;;;;;16.35;64.16;99645.50;5093331;28;20249;-67
2022/05/02 04:06:48;;;;;;;8.53;7.73;;;;;;;16.88;63.21;99646.31;5093315;28;20253;-67
2022/05/02 04:09:15;;;;;;;8.03;7.37;;;;;;;17.39;60.03;99651.78;5092600;28;20651;-67
2022/05/02 04:11:43;;;;;;;14.20;7.77;;;;;;;17.78;58.69;99648.31;5093216;28;20196;-68
2022/05/02 04:14:10;;;;;;;8.60;6.80;;;;;;;18.29;58.12;99650.94;5092931;28;20231;-68
2022/05/02 04:16:37;;;;;;;13.03;7.07;;;;;;;18.79;55.97;99652.63;5092796;28;20662;-68
2022/05/02 04:19:04;;;;;;;11.23;6.50;;;;;;;19.21;54.69;99651.13;5092574;28;20674;-68
2022/05/02 04:21:31;;;;;;;20.63;15.23;;;;;;;19.60;53.73;99660.06;5093329;28;20197;-67
2022/05/02 04:23:57;;;;;;;12.23;7.47;;;;;;;19.97;51.55;99661.03;5092583;28;20279;-67
2022/05/02 04:26:24;;;;;;;7.13;6.43;;;;;;;20.36;49.85;99658.00;5092489;28;20198;-68
2022/05/02 04:28:53;;;;;;;18.07;7.53;;;;;;;20.72;47.60;99658.28;5092239;28;20287;-67
2022/05/02 04:31:19;;;;;;;7.00;6.60;;;;;;;21.02;47.50;99662.06;5092509;28;20205;-67
2022/05/02 04:33:46;;;;;;;13.87;6.70;;;;;;;20.87;47.23;99661.94;5092254;28;20191;-68
2022/05/02 04:36:13;;;;;;;9.50;6.50;;;;;;;20.58;47.74;99657.09;5092662;28;20282;-68
2022/05/02 04:38:39;;;;;;;7.83;6.30;;;;;;;20.32;48.88;99656.03;5092641;28;20264;-72
2022/05/02 04:41:06;;;;;;;5.93;3.90;;;;;;;20.29;52.92;99648.44;5092426;28;20188;-70
2022/05/02 04:43:33;;;;;;;6.73;5.90;;;;;;;20.69;49.85;99654.22;5090640;28;20654;-72
2022/05/02 04:46:01;;;;;;;16.90;5.90;;;;;;;21.41;46.91;99654.50;5092125;28;20195;-70
2022/05/02 04:48:28;;;;;;;6.47;4.73;;;;;;;22.14;45.06;99654.28;5092311;28;20227;-71
2022/05/02 04:50:54;;;;;;;6.37;5.17;;;;;;;22.90;42.55;99653.28;5092909;28;20200;-70
2022/05/02 04:53:21;;;;;;;7.60;4.80;;;;;;;23.43;41.55;99655.41;5092633;28;20191;-71
2022/05/02 04:55:48;;;;;;;5.80;5.07;;;;;;;24.04;39.42;99646.78;5092705;28;20253;-71
2022/05/02 04:58:15;;;;;;;7.23;4.97;;;;;;;24.22;38.28;99648.06;5092544;28;20191;-72
2022/05/02 05:00:42;;;;;;;6.30;4.73;;;;;;;24.22;38.74;99643.41;5092237;28;20191;-72
2022/05/02 05:03:11;;;;;;;4.80;4.37;;;;;;;24.99;36.26;99648.84;5090924;28;20261;-73
2022/05/02 05:05:37;;;;;;;5.33;4.80;;;;;;;25.33;35.89;99653.44;5090744;28;20284;-75
2022/05/02 05:08:05;;;;;;;6.57;4.37;;;;;;;25.42;36.20;99657.13;5090417;28;20462;-72
2022/05/02 05:10:36;;;;;;;6.23;4.40;;;;;;;25.91;33.92;99660.38;5090656;28;20624;-72
2022/05/02 05:13:07;;;;;;;4.87;4.47;;;;;;;25.71;34.25;99660.63;5090305;28;20227;-72
2022/05/02 05:18:58;;;;;;;6.93;4.70;;;;;;;26.32;33.63;99666.91;5075519;28;20206;-71
2022/05/02 05:21:33;;;;;;;7.43;4.13;;;;;;;27.11;31.75;99664.84;5090546;28;20197;-70
2022/05/02 05:24:37;;;;;;;6.77;4.20;;;;;;;27.10;31.01;99662.41;5070119;28;20669;-70
2022/05/02 05:27:17;;;;;;;4.27;3.87;;;;;;;26.25;32.05;99656.41;5068818;28;20245;-72
2022/05/02 05:29:49;;;;;;;8.93;4.20;;;;;;;26.49;32.50;99667.22;5070235;28;20257;-67
2022/05/02 05:32:28;;;;;;;4.07;3.77;;;;;;;27.26;31.52;99650.16;5074746;28;20563;-71
2022/05/02 05:35:04;;;;;;;3.90;3.50;;;;;;;27.35;30.50;99648.34;5081937;28;20184;-73
2022/05/02 05:37:59;;;;;;;4.27;3.87;;;;;;;27.35;30.89;99651.91;5090799;28;20205;-73
2022/05/02 05:40:30;;;;;;;4.07;3.50;;;;;;;27.72;30.34;99648.19;5086792;28;20658;-74
2022/05/02 05:43:08;;;;;;;5.00;3.50;;;;;;;26.62;32.13;99661.06;5090460;28;20183;-75
2022/05/02 05:45:43;;;;;;;5.70;3.00;;;;;;;26.84;31.47;99664.78;5090010;28;20191;-77
2022/05/02 05:48:15;;;;;;;3.87;3.43;;;;;;;27.11;30.87;99664.84;5088806;28;20207;-73
2022/05/02 05:50:50;;;;;;;5.63;3.73;;;;;;;26.41;31.41;99670.63;5086533;28;20179;-72
2022/05/02 05:53:32;;;;;;;6.60;3.70;;;;;;;25.68;33.09;99666.66;5089778;28;20189;-70
2022/05/02 05:56:18;;;;;;;3.63;2.77;;;;;;;25.00;34.25;99658.59;5091640;28;20183;-69
2022/05/02 05:58:58;;;;;;;3.43;3.13;;;;;;;24.90;34.68;99672.31;5094756;28;20698;-69
2022/05/02 06:01:31;;;;;;;6.50;4.23;;;;;;;24.77;35.55;99656.66;5095006;28;20191;-68
2022/05/02 06:04:04;;;;;;;7.10;6.40;;;;;;;25.09;34.61;99658.81;5094632;28;20700;-67
2022/05/02 06:06:32;;;;;;;3.83;3.43;;;;;;;24.79;34.99;99656.38;5094983;28;20245;-67
2022/05/02 06:09:01;;;;;;;4.47;3.90;;;;;;;24.35;35.90;99656.38;5093381;28;20275;-67
2022/05/02 06:11:28;;;;;;;4.00;3.70;;;;;;;24.05;36.85;99659.28;5092573;28;20225;-67
2022/05/02 06:13:57;;;;;;;4.17;3.93;;;;;;;24.21;36.48;99658.09;5091511;28;20261;-68
2022/05/02 06:19:16;;;;;;;5.17;4.77;;;;;;;24.03;37.22;99661.47;5093054;28;20185;-68
2022/05/02 06:21:45;;;;;;;8.33;4.63;;;;;;;23.62;37.49;99653.72;5093669;28;20249;-69
2022/05/02 06:24:13;;;;;;;7.03;4.70;;;;;;;23.50;38.66;99659.47;5093253;28;20636;-68
2022/05/02 06:26:41;;;;;;;9.70;8.67;;;;;;;22.94;39.61;99657.91;5093448;28;20191;-67
2022/05/02 06:29:09;;;;;;;5.23;4.80;;;;;;;22.91;40.38;99658.44;5094455;28;20292;-67
2022/05/02 06:31:37;;;;;;;6.00;4.30;;;;;;;23.05;40.66;99648.69;5094682;28;20192;-67
2022/05/02 06:34:06;;;;;;;5.13;4.60;;;;;;;23.27;39.90;99651.94;5094750;28;20221;-66
2022/05/02 06:36:54;;;;;;;7.07;4.60;;;;;;;23.25;39.33;99656.84;5094097;28;20746;-67
2022/05/02 06:39:29;;;;;;;4.57;4.23;;;;;;;23.57;39.12;99654.56;5093866;28;20181;-66
2022/05/02 06:42:10;;;;;;;4.30;4.03;;;;;;;22.94;40.33;99648.97;5094643;28;20620;-66
2022/05/02 06:44:50;;;;;;;5.20;4.57;;;;;;;23.07;41.23;99638.38;5094136;28;20731;-66
2022/05/02 06:47:25;;;;;;;6.57;4.80;;;;;;;22.62;40.95;99643.81;5093405;28;20183;-67
2022/05/02 06:49:55;;;;;;;6.13;5.40;;;;;;;23.30;40.91;99639.72;5094738;28;20197;-67
2022/05/02 06:52:29;;;;;;;4.23;3.57;;;;;;;23.95;39.76;99634.91;5094391;28;20214;-68
2022/05/02 06:55:10;;;;;;;3.70;3.40;;;;;;;24.51;37.84;99640.81;5094325;28;20193;-67
2022/05/02 06:57:47;;;;;;;3.37;2.90;;;;;;;24.52;36.43;99645.13;5094215;28;20196;-68
2022/05/02 07:00:18;;;;;;;4.03;3.73;;;;;;;24.33;37.14;99645.00;5094529;28;20184;-68
2022/05/02 07:03:20;;;;;;;3.07;2.97;;;;;;;23.91;36.22;99641.16;5094869;28;20235;-67
2022/05/02 07:06:01;;;;;;;3.23;2.97;;;;;;;23.62;37.46;99646.41;5093951;28;20191;-68
2022/05/02 07:08:30;;;;;;;5.37;2.90;;;;;;;23.77;36.97;99646.34;5093951;28;20213;-67
2022/05/02 07:11:04;;;;;;;3.97;3.50;;;;;;;23.41;37.20;99634.03;5094187;28;20190;-67
2022/05/02 07:13:47;;;;;;;5.43;3.50;;;;;;;23.68;36.51;99634.44;5093697;28;20225;-67
2022/05/02 07:16:22;;;;;;;3.43;3.20;;;;;;;23.85;36.36;99637.63;5094124;28;20184;-67
2022/05/02 07:19:14;;;;;;;3.77;3.17;;;;;;;24.25;35.41;99637.44;5094430;28;20199;-67
2022/05/02 07:21:47;;;;;;;4.57;3.30;;;;;;;24.35;34.89;99642.78;5094294;28;20191;-67
2022/05/02 07:24:21;;;;;;;3.20;3.00;;;;;;;23.94;34.51;99635.97;5093244;28;20182;-67
2022/05/02 07:26:59;;;;;;;3.50;3.00;;;;;;;23.77;35.59;99634.69;5094126;28;20235;-66
2022/05/02 07:29:28;;;;;;;3.60;3.40;;;;;;;23.87;35.23;99640.06;5094145;28;20596;-67
2022/05/02 07:31:55;;;;;;;5.27;3.30;;;;;;;23.72;35.79;99638.22;5093232;28;20196;-68
2022/05/02 07:34:23;;;;;;;5.37;3.80;;;;;;;23.62;36.13;99622.00;5093379;28;20228;-66
2022/05/02 07:36:51;;;;;;;3.23;3.03;;;;;;;23.71;36.48;99627.66;5093539;28;20197;-67
2022/05/02 07:39:22;;;;;;;4.13;3.00;;;;;;;23.99;36.29;99622.41;5093118;28;20232;-67
2022/05/02 07:41:50;;;;;;;4.47;3.13;;;;;;;24.19;36.55;99624.19;5092824;28;20196;-67
2022/05/02 07:44:19;;;;;;;3.67;3.37;;;;;;;24.55;35.36;99618.19;5093200;28;20691;-67
2022/05/02 07:46:47;;;;;;;3.70;3.43;;;;;;;24.69;34.69;99613.78;5093587;28;20577;-67
2022/05/02 07:49:15;;;;;;;7.40;3.33;;;;;;;24.72;34.19;99621.38;5093195;28;20217;-67
2022/05/02 07:51:46;;;;;;;4.90;3.10;;;;;;;24.66;34.81;99600.75;5094253;28;20244;-67
2022/05/02 07:54:16;;;;;;;4.20;3.13;;;;;;;24.54;34.79;99613.09;5093512;28;20571;-68
2022/05/02 07:56:47;;;;;;;5.13;3.03;;;;;;;24.49;35.66;99592.19;5093723;28;20255;-67
2022/05/02 07:59:16;;;;;;;3.17;2.90;;;;;;;24.70;35.36;99585.50;5093071;28;20202;-68
2022/05/02 08:01:43;;;;;;;3.50;3.30;;;;;;;24.00;36.57;99577.88;5093138;28;20202;-68
2022/05/02 08:04:12;;;;;;;6.47;3.77;;;;;;;23.98;37.04;99577.34;5093056;28;20194;-67
2022/05/02 08:07:04;;;;;;;3.97;3.67;;;;;;;23.72;37.77;99556.84;5092179;28;20255;-67
2022/05/02 08:09:52;;;;;;;3.60;3.10;;;;;;;24.04;36.63;99557.22;5093074;28;20218;-67
2022/05/02 08:12:27;;;;;;;3.30;3.00;;;;;;;24.32;36.16;99550.22;5093056;28;20255;-67
2022/05/02 08:15:02;;;;;;;3.27;2.90;;;;;;;24.56;36.15;99545.69;5093055;28;20272;-67
2022/05/02 08:17:49;;;;;;;4.27;3.40;;;;;;;24.69;36.06;99548.59;5093087;28;20189;-68
2022/05/02 08:20:24;;;;;;;3.83;2.93;;;;;;;24.62;35.84;99555.44;5092522;28;20189;-67
2022/05/02 08:28:56;;;;;;;3.13;2.50;;;;;;;23.96;34.04;99541.53;5092590;28;20209;-68
2022/05/02 08:31:41;;;;;;;2.90;2.70;;;;;;;24.19;34.82;99534.59;5092579;28;20715;-67
2022/05/02 08:34:16;;;;;;;3.00;2.80;;;;;;;24.64;33.97;99554.06;5092522;28;20264;-68
2022/05/02 08:36:52;;;;;;;2.40;2.30;;;;;;;23.99;34.59;99554.56;5092377;28;20239;-68
2022/05/02 08:39:25;;;;;;;2.60;2.40;;;;;;;24.30;33.26;99539.66;5093179;28;20251;-68
2022/05/02 08:42:07;;;;;;;3.70;2.63;;;;;;;24.00;35.15;99534.47;5092302;28;20240;-67
2022/05/02 08:45:09;;;;;;;2.70;2.50;;;;;;;24.30;34.01;99536.13;5092240;28;20236;-67
2022/05/02 08:48:32;;;;;;;4.93;2.70;;;;;;;24.17;34.31;99537.59;5093159;28;20188;-66
2022/05/02 08:51:49;;;;;;;10.67;3.53;;;;;;;24.54;32.90;99532.38;5092424;28;20182;-67
2022/05/02 08:55:04;;;;;;;2.73;2.63;;;;;;;24.80;32.78;99536.50;5018579;28;20258;-67
2022/05/02 08:58:03;;;;;;;3.10;2.90;;;;;;;25.17;32.06;99532.28;5073940;28;20259;-67
2022/05/02 09:00:51;;;;;;;2.97;2.67;;;;;;;25.38;32.06;99539.13;5091768;28;20244;-67
2022/05/02 09:03:49;;;;;;;3.93;2.40;;;;;;;25.26;32.04;99525.94;5091773;28;20681;-67
2022/05/02 09:07:09;;;;;;;2.87;2.37;;;;;;;25.44;32.33;99525.19;5091157;28;20245;-67
2022/05/02 09:09:53;;;;;;;3.57;2.77;;;;;;;24.88;32.54;99516.84;5049362;28;20648;-68
2022/05/02 09:12:51;;;;;;;5.60;2.90;;;;;;;24.71;33.22;99538.22;5048839;28;20204;-67
2022/05/02 09:15:35;;;;;;;3.23;2.90;;;;;;;24.86;33.30;99519.06;5082328;28;20621;-68
2022/05/02 09:18:26;;;;;;;5.23;2.70;;;;;;;24.72;33.13;99528.19;5091809;28;20189;-68
2022/05/02 09:20:58;;;;;;;2.97;2.17;;;;;;;24.82;32.56;99517.19;5091950;28;20244;-67
2022/05/02 09:24:09;;;;;;;2.27;2.17;;;;;;;25.07;32.13;99513.41;5091577;28;20195;-67
2022/05/02 09:27:10;;;;;;;3.27;3.00;;;;;;;24.85;33.22;99517.44;5080987;28;20255;-67
2022/05/02 09:30:18;;;;;;;2.73;2.53;;;;;;;24.83;32.60;99506.03;5092316;28;20283;-68
2022/05/02 09:32:47;;;;;;;3.30;2.80;;;;;;;24.53;33.01;99497.34;5096544;28;20183;-67
2022/05/02 09:35:29;;;;;;;3.00;2.70;;;;;;;24.79;32.45;99517.78;5096617;28;20194;-68
2022/05/02 09:37:58;;;;;;;5.33;2.80;;;;;;;25.15;32.45;99520.91;5096470;28;20634;-68
2022/05/02 09:40:35;;;;;;;3.23;2.93;;;;;;;24.12;32.88;99510.47;5095504;28;20613;-66
2022/05/02 09:43:17;;;;;;;2.40;2.30;;;;;;;24.40;33.50;99514.31;5095661;28;20222;-66
2022/05/02 09:52:02;;;;;;;3.60;2.30;;;;;;;24.75;32.93;99495.78;5095570;28;20262;-68
2022/05/02 09:57:56;;;;;;;3.13;2.80;;;;;;;25.64;31.05;99486.03;5095675;28;20228;-68
2022/05/02 10:03:24;;;;;;;4.83;2.83;;;;;;;25.06;31.53;99471.00;5095578;28;20700;-67
2022/05/02 10:05:57;;;;;;;3.40;2.47;;;;;;;24.91;32.58;99461.91;5095643;28;20184;-68
2022/05/02 10:08:49;;;;;;;2.20;2.10;;;;;;;24.84;32.02;99464.16;5095918;28;20186;-67
2022/05/02 10:11:25;;;;;;;2.57;2.07;;;;;;;24.78;31.22;99457.19;5093077;28;20194;-69
2022/05/02 10:14:07;;;;;;;5.90;5.17;;;;;;;24.73;31.25;99459.97;5095651;28;20230;-69
2022/05/02 10:16:45;;;;;;;4.80;2.80;;;;;;;23.80;31.76;99441.50;5094877;28;20276;-67
2022/05/02 10:19:27;;;;;;;2.27;2.13;;;;;;;23.98;31.67;99436.22;5094910;28;20194;-67
2022/05/02 10:22:11;;;;;;;4.07;2.03;;;;;;;23.94;32.52;99451.44;5095202;28;20248;-67
2022/05/02 10:24:56;;;;;;;1.80;1.70;;;;;;;23.85;31.07;99436.84;5095274;28;20247;-67
2022/05/02 10:27:34;;;;;;;2.30;1.90;;;;;;;24.00;32.25;99428.63;5095000;28;20251;-68
2022/05/02 10:30:07;;;;;;;3.30;2.07;;;;;;;24.27;32.33;99434.34;5094888;28;20300;-68
2022/05/02 10:32:46;;;;;;;4.60;2.27;;;;;;;24.58;31.82;99419.34;5094804;28;20190;-68
2022/05/02 10:35:14;;;;;;;1.97;1.87;;;;;;;24.55;30.47;99422.63;5094466;28;20608;-67
2022/05/02 10:37:43;;;;;;;1.97;1.87;;;;;;;24.67;30.37;99419.56;5095183;28;20254;-67
2022/05/02 10:40:13;;;;;;;2.03;1.67;;;;;;;24.38;30.83;99405.97;5094459;28;20199;-67
2022/05/02 10:42:52;;;;;;;2.10;1.87;;;;;;;23.75;31.95;99403.56;5093949;28;20280;-67
2022/05/02 10:45:19;;;;;;;2.20;1.87;;;;;;;23.78;31.68;99409.25;5094706;28;20258;-67
2022/05/02 10:47:51;;;;;;;2.20;2.00;;;;;;;24.07;31.41;99398.44;5094232;28;20649;-67
2022/05/02 10:50:21;;;;;;;2.63;2.20;;;;;;;24.05;31.00;99392.50;5095440;28;20276;-68
2022/05/02 10:53:18;;;;;;;2.80;2.20;;;;;;;24.02;30.54;99393.06;5094040;28;21009;-68
2022/05/02 10:55:57;;;;;;;2.40;2.20;;;;;;;23.82;31.15;99402.16;5094225;28;20185;-68
2022/05/02 10:58:25;;;;;;;2.13;1.93;;;;;;;23.35;32.87;99401.94;5094327;28;20230;-67
2022/05/02 11:01:12;;;;;;;2.07;1.93;;;;;;;23.46;32.32;99394.56;5094153;28;20233;-68
2022/05/02 11:03:55;;;;;;;3.03;2.83;;;;;;;23.57;32.74;99410.47;5094853;28;20188;-67
2022/05/02 11:06:32;;;;;;;2.53;2.43;;;;;;;23.24;33.30;99386.81;5094648;28;20325;-68
2022/05/02 11:09:04;;;;;;;2.70;2.50;;;;;;;23.46;33.07;99389.94;5094659;28;20275;-67
2022/05/02 11:11:46;;;;;;;3.00;2.43;;;;;;;23.24;32.69;99394.97;5093633;28;20289;-67
2022/05/02 11:14:23;;;;;;;2.13;1.93;;;;;;;23.42;32.75;99394.31;5093639;28;20607;-67
2022/05/02 11:16:58;;;;;;;3.20;2.10;;;;;;;23.59;32.49;99388.47;5093816;28;20219;-67
2022/05/02 11:22:26;;;;;;;2.30;2.10;;;;;;;23.51;32.86;99387.19;5093130;28;20185;-68
2022/05/02 11:25:06;;;;;;;2.80;2.20;;;;;;;23.19;33.99;99383.31;5092224;28;20201;-67
2022/05/02 11:27:51;;;;;;;2.40;2.20;;;;;;;23.03;34.21;99395.34;5092916;28;20192;-67
2022/05/02 11:30:23;;;;;;;2.10;2.00;;;;;;;22.84;33.44;99384.31;5093526;28;20220;-67
2022/05/02 11:33:05;;;;;;;5.10;2.40;;;;;;;23.09;33.94;99392.31;5093331;28;20267;-68
2022/05/02 11:35:34;;;;;;;2.53;2.30;;;;;;;23.08;33.51;99393.38;5093592;28;20238;-66
2022/05/02 11:38:08;;;;;;;4.60;2.40;;;;;;;23.09;33.48;99391.50;5093447;28;20208;-67
2022/05/02 11:40:46;;;;;;;5.50;2.07;;;;;;;22.89;34.12;99389.72;5093438;28;20192;-67
2022/05/02 11:43:16;;;;;;;3.83;2.37;;;;;;;22.81;33.89;99384.06;5093255;28;20324;-67
2022/05/02 11:45:44;;;;;;;3.90;2.57;;;;;;;22.78;34.78;99382.72;5093321;28;20617;-67
2022/05/02 11:48:38;;;;;;;2.80;2.03;;;;;;;22.54;35.04;99386.34;5092936;28;20195;-66
2022/05/02 11:51:07;;;;;;;2.67;2.50;;;;;;;22.48;34.91;99401.78;5080466;28;20259;-67
2022/05/02 11:53:36;;;;;;;2.63;2.43;;;;;;;22.64;34.25;99403.34;5091761;28;20205;-68
2022/05/02 11:56:04;;;;;;;2.60;2.20;;;;;;;22.43;34.39;99412.59;5092800;28;20204;-68
2022/05/02 11:58:38;;;;;;;2.50;2.30;;;;;;;22.39;34.25;99399.88;5093267;28;20199;-67
2022/05/02 12:01:06;;;;;;;4.90;2.63;;;;;;;22.24;34.34;99400.72;5092693;28;20190;-67
2022/05/02 12:03:53;;;;;;;2.53;2.33;;;;;;;22.12;35.26;99394.78;5093141;28;20204;-67
2022/05/02 12:06:30;;;;;;;4.93;2.53;;;;;;;21.64;35.96;99397.22;5093030;28;20187;-67
2022/05/02 12:09:03;;;;;;;2.50;2.30;;;;;;;21.23;36.70;99385.53;5093472;28;20189;-66
2022/05/02 12:11:30;;;;;;;2.83;2.63;;;;;;;21.27;37.41;99377.72;5094115;28;20241;-66
2022/05/02 12:14:01;;;;;;;2.50;2.40;;;;;;;21.32;36.62;99383.94;5093453;28;20227;-66
2022/05/02 12:16:33;;;;;;;2.93;2.20;;;;;;;21.25;37.27;99383.41;5092985;28;20223;-66
2022/05/02 12:19:03;;;;;;;2.73;2.53;;;;;;;21.23;37.61;99374.72;5093130;28;20188;-66
2022/05/02 12:21:36;;;;;;;6.13;2.70;;;;;;;21.34;37.77;99381.78;5093008;28;20191;-66
2022/05/02 12:24:04;;;;;;;2.83;2.63;;;;;;;21.08;37.10;99355.81;5093158;28;20270;-66
2022/05/02 12:26:33;;;;;;;3.23;3.03;;;;;;;21.07;37.29;99356.06;5093015;28;20581;-67
2022/05/02 12:29:13;;;;;;;3.23;2.80;;;;;;;21.00;38.31;99350.94;5092975;28;20191;-66
2022/05/02 12:31:43;;;;;;;2.87;2.67;;;;;;;21.01;37.81;99360.66;5092587;28;20611;-66